createdAt,value
2023-03-03T00:10:33.050Z,67.68
2023-03-03T00:15:36.895Z,68.31
2023-03-03T00:20:40.450Z,67.66
2023-03-03T00:25:47.324Z,67.86
2023-03-03T00:30:50.610Z,67.83
2023-03-03T00:35:53.424Z,67.23
2023-03-03T00:40:56.145Z,67.31
2023-03-03T00:45:59.190Z,66.70
2023-03-03T00:51:03.307Z,66.98
2023-03-03T00:56:06.250Z,66.11
2023-03-03T01:01:09.255Z,66.48
2023-03-03T01:06:24.450Z,66.10
2023-03-03T01:11:29.021Z,65.32
2023-03-03T01:16:31.738Z,65.15
2023-03-03T01:21:34.787Z,64.91
2023-03-03T01:26:37.587Z,65.19
2023-03-03T01:31:41.123Z,64.73
2023-03-03T01:36:43.958Z,64.74
2023-03-03T01:41:46.644Z,63.30
2023-03-03T01:47:06.147Z,62.97
2023-03-03T01:52:36.334Z,62.79
2023-03-03T01:57:42.996Z,62.35
2023-03-03T02:02:49.436Z,62.34
2023-03-03T02:07:52.267Z,62.90
2023-03-03T02:12:56.875Z,63.14
2023-03-03T02:18:02.762Z,63.25
2023-03-03T02:23:21.002Z,63.12
2023-03-03T02:28:30.240Z,62.66
2023-03-03T02:33:34.347Z,62.45
2023-03-03T02:38:55.769Z,61.90
2023-03-03T02:44:06.193Z,61.82
2023-03-03T02:49:10.848Z,61.21
2023-03-03T02:54:18.084Z,60.70
2023-03-03T02:59:21.387Z,60.50
2023-03-03T03:04:27.357Z,60.23
2023-03-03T03:09:30.891Z,60.57
2023-03-03T03:14:34.833Z,60.74
2023-03-03T03:19:40.199Z,59.78
2023-03-03T03:24:43.278Z,60.13
2023-03-03T03:29:46.326Z,60.13
2023-03-03T03:34:49.154Z,59.52
2023-03-03T03:39:52.279Z,57.86
2023-03-03T03:44:55.880Z,57.91
2023-03-03T03:49:58.938Z,57.93
2023-03-03T03:55:02.079Z,57.05
2023-03-03T04:00:06.880Z,57.53
2023-03-03T04:05:16.945Z,57.25
2023-03-03T04:10:19.859Z,56.96
2023-03-03T04:15:23.537Z,57.59
2023-03-03T04:20:27.195Z,57.38
2023-03-03T04:25:31.483Z,56.67
2023-03-03T04:30:35.119Z,56.90
2023-03-03T04:35:38.240Z,56.10
2023-03-03T04:40:42.521Z,55.80
2023-03-03T04:45:47.158Z,55.12
2023-03-03T04:50:50.487Z,54.78
2023-03-03T04:55:54.185Z,54.84
2023-03-03T05:00:59.068Z,54.75
2023-03-03T05:06:04.839Z,52.82
2023-03-03T05:11:07.800Z,51.78
2023-03-03T05:16:11.122Z,50.71
2023-03-03T05:21:13.937Z,50.89
2023-03-03T05:26:17.565Z,51.95
2023-03-03T05:31:20.378Z,51.36
2023-03-03T05:36:23.157Z,51.69
2023-03-03T05:41:26.328Z,52.74
2023-03-03T05:46:29.037Z,52.10
2023-03-03T05:51:31.842Z,50.92
2023-03-03T05:56:34.663Z,50.86
2023-03-03T06:01:37.373Z,50.30
2023-03-03T06:06:40.207Z,49.85
2023-03-03T06:11:43.002Z,51.24
2023-03-03T06:16:45.798Z,51.86
2023-03-03T06:21:48.509Z,52.08
2023-03-03T06:26:55.272Z,53.58
2023-03-03T06:31:59.486Z,54.02
2023-03-03T06:37:02.264Z,53.86
2023-03-03T06:42:05.067Z,53.43
2023-03-03T06:47:07.881Z,53.45
2023-03-03T06:52:14.116Z,54.02
2023-03-03T06:57:26.716Z,54.59
2023-03-03T07:02:29.499Z,54.90
2023-03-03T07:07:32.317Z,54.23
2023-03-03T07:12:36.171Z,53.41
2023-03-03T07:17:46.332Z,53.01
2023-03-03T07:22:49.415Z,53.51
2023-03-03T07:27:53.799Z,52.25
2023-03-03T07:32:59.118Z,52.75
2023-03-03T07:38:01.929Z,52.04
2023-03-03T07:43:30.536Z,53.04
2023-03-03T07:48:36.908Z,51.35
2023-03-03T07:53:39.921Z,49.43
2023-03-03T07:58:42.721Z,48.32
2023-03-03T08:03:47.284Z,47.54
2023-03-03T08:08:50.029Z,48.21
2023-03-03T08:13:52.698Z,46.45
2023-03-03T08:19:03.587Z,46.12
2023-03-03T08:24:07.007Z,45.93
2023-03-03T08:29:09.726Z,46.02
2023-03-03T08:34:12.391Z,47.09
2023-03-03T08:39:15.093Z,47.92
2023-03-03T08:44:17.856Z,47.68
2023-03-03T08:49:20.867Z,47.28
2023-03-03T08:54:23.542Z,46.70
2023-03-03T08:59:26.374Z,46.90
2023-03-03T09:04:29.064Z,46.99
2023-03-03T09:09:32.087Z,47.43
2023-03-03T09:14:34.961Z,47.22
2023-03-03T09:19:37.941Z,46.95
2023-03-03T09:24:43.000Z,47.29
2023-03-03T09:29:45.752Z,47.53
2023-03-03T09:34:48.604Z,47.39
2023-03-03T09:39:56.034Z,47.08
2023-03-03T09:45:07.931Z,48.15
2023-03-03T09:50:16.451Z,47.31
2023-03-03T09:55:31.473Z,46.83
2023-03-03T10:00:34.241Z,47.33
2023-03-03T10:05:49.030Z,47.40
2023-03-03T10:11:27.614Z,47.18
2023-03-03T10:16:40.677Z,48.06
2023-03-03T10:21:55.644Z,48.51
2023-03-03T10:27:26.223Z,49.28
2023-03-03T10:32:54.974Z,49.41
2023-03-03T10:38:22.576Z,50.12
2023-03-03T10:43:50.195Z,50.41
2023-03-03T10:49:23.287Z,51.01
2023-03-03T10:54:32.644Z,51.05
2023-03-03T11:00:00.126Z,51.58
2023-03-03T11:05:22.073Z,51.62
2023-03-03T11:10:51.894Z,51.82
2023-03-03T11:16:08.057Z,52.51
2023-03-03T11:21:15.998Z,52.52
2023-03-03T11:26:29.721Z,52.93
2023-03-03T11:31:58.282Z,53.24
2023-03-03T11:37:38.989Z,53.89
2023-03-03T11:43:06.388Z,53.40
2023-03-03T11:48:28.752Z,53.54
2023-03-03T11:53:50.306Z,54.22
2023-03-03T11:59:14.360Z,53.71
2023-03-03T12:04:22.206Z,54.19
2023-03-03T12:10:00.015Z,54.71
2023-03-03T12:15:11.798Z,55.64
2023-03-03T12:20:33.825Z,55.96
2023-03-03T12:25:39.478Z,55.81
2023-03-03T12:31:13.798Z,56.39
2023-03-03T12:36:22.855Z,56.38
2023-03-03T12:41:28.683Z,56.73
2023-03-03T12:46:43.374Z,56.62
2023-03-03T12:51:46.033Z,57.11
2023-03-03T12:57:01.450Z,57.48
2023-03-03T13:02:30.448Z,58.47
2023-03-03T13:08:14.553Z,58.48
2023-03-03T13:13:25.006Z,58.31
2023-03-03T13:18:40.144Z,58.03
2023-03-03T13:24:04.203Z,58.56
2023-03-03T13:29:32.600Z,58.10
2023-03-03T13:34:54.041Z,57.41
2023-03-03T13:39:58.578Z,57.04
2023-03-03T13:45:04.207Z,56.83
2023-03-03T13:50:32.051Z,56.72
2023-03-03T13:55:40.870Z,57.20
2023-03-03T14:01:04.978Z,56.58
2023-03-03T14:06:20.855Z,56.54
2023-03-03T14:11:47.554Z,56.70
2023-03-03T14:16:59.883Z,56.57
2023-03-03T14:22:07.422Z,56.08
2023-03-03T14:27:23.982Z,55.83
2023-03-03T14:32:43.192Z,55.17
2023-03-03T14:37:48.115Z,55.11
2023-03-03T14:42:53.784Z,55.03
2023-03-03T14:47:56.636Z,55.30
2023-03-03T14:53:19.138Z,54.32
2023-03-03T14:58:35.481Z,54.38
2023-03-03T15:03:38.773Z,54.18
2023-03-03T15:08:43.160Z,54.76
2023-03-03T15:13:46.125Z,54.34
2023-03-03T15:19:12.046Z,54.54
2023-03-03T15:24:47.652Z,54.68
2023-03-03T15:29:53.439Z,54.48
2023-03-03T15:35:24.624Z,53.38
2023-03-03T15:40:49.733Z,53.05
2023-03-03T15:46:35.012Z,52.64
2023-03-03T15:52:13.761Z,52.93
2023-03-03T15:57:53.779Z,52.81
2023-03-03T16:03:02.931Z,51.73
2023-03-03T16:08:37.980Z,51.00
2023-03-03T16:14:04.605Z,51.38
2023-03-03T16:19:19.522Z,51.64
2023-03-03T16:24:41.214Z,51.26
2023-03-03T16:30:24.708Z,48.82
2023-03-03T16:35:46.281Z,48.88
2023-03-03T16:40:56.198Z,48.27
2023-03-03T16:46:04.889Z,46.72
2023-03-03T16:51:27.616Z,46.10
2023-03-03T16:56:55.265Z,45.79
2023-03-03T17:02:29.181Z,44.72
2023-03-03T17:07:45.507Z,42.70
2023-03-03T17:13:10.388Z,43.38
2023-03-03T17:18:19.696Z,43.55
2023-03-03T17:23:44.537Z,43.83
2023-03-03T17:28:59.492Z,44.20
2023-03-03T17:34:26.749Z,44.75
2023-03-03T17:39:44.715Z,43.38
2023-03-03T17:45:23.086Z,43.79
2023-03-03T17:50:34.920Z,43.49
2023-03-03T17:56:02.777Z,44.54
2023-03-03T18:01:27.251Z,45.40
2023-03-03T18:06:34.852Z,45.75
2023-03-03T18:11:59.452Z,46.58
2023-03-03T18:17:01.903Z,48.08
2023-03-03T18:22:12.298Z,48.85
2023-03-03T18:27:30.021Z,50.45
2023-03-03T18:32:43.448Z,51.53
2023-03-03T18:37:47.221Z,52.74
2023-03-03T18:42:54.225Z,53.34
2023-03-03T18:48:09.977Z,53.45
2023-03-03T18:53:17.755Z,53.84
2023-03-03T18:58:20.392Z,54.18
2023-03-03T19:03:38.048Z,54.88
2023-03-03T19:08:56.773Z,55.06
2023-03-03T19:14:18.010Z,55.72
2023-03-03T19:19:23.755Z,56.29
2023-03-03T19:24:31.401Z,56.85
2023-03-03T19:29:46.505Z,57.03
2023-03-03T19:35:04.104Z,56.91
2023-03-03T19:40:37.432Z,57.62
2023-03-03T19:45:55.464Z,58.68
2023-03-03T19:51:13.042Z,59.14
2023-03-03T19:56:35.469Z,59.77
2023-03-03T20:01:44.330Z,59.84
2023-03-03T20:06:58.128Z,59.70
2023-03-03T20:12:32.839Z,60.24
2023-03-03T20:17:41.406Z,61.00
2023-03-03T20:23:00.953Z,61.00
2023-03-03T20:28:32.840Z,61.49
2023-03-03T20:34:01.493Z,61.86
2023-03-03T20:39:21.803Z,61.91
2023-03-03T20:44:46.031Z,62.76
2023-03-03T20:49:59.150Z,62.56
2023-03-03T20:55:04.809Z,63.16
2023-03-03T21:00:11.188Z,63.37
2023-03-03T21:05:16.612Z,63.62
2023-03-03T21:10:25.093Z,63.91
2023-03-03T21:15:31.559Z,64.07
2023-03-03T21:20:35.546Z,64.08
2023-03-03T21:25:41.239Z,63.62
2023-03-03T21:31:07.798Z,63.04
2023-03-03T21:36:12.535Z,62.69
2023-03-03T21:41:16.869Z,62.24
2023-03-03T21:46:25.104Z,62.27
2023-03-03T21:51:29.169Z,62.20
2023-03-03T21:56:32.006Z,62.46
2023-03-03T22:01:37.135Z,62.74
2023-03-03T22:06:41.179Z,63.43
2023-03-03T22:11:43.908Z,64.10
2023-03-03T22:16:46.607Z,63.15
2023-03-03T22:21:50.579Z,63.62
2023-03-03T22:26:53.195Z,63.24
2023-03-03T22:31:56.001Z,63.72
2023-03-03T22:36:58.776Z,63.45
2023-03-03T22:42:02.192Z,63.33
2023-03-03T22:47:05.063Z,63.81
2023-03-03T22:52:07.800Z,63.91
2023-03-03T22:57:10.476Z,63.99
2023-03-03T23:02:13.479Z,64.49
2023-03-03T23:07:16.323Z,64.89
2023-03-03T23:12:19.032Z,65.48
2023-03-03T23:17:21.849Z,65.59
2023-03-03T23:22:24.546Z,66.43
2023-03-03T23:27:27.268Z,66.41
2023-03-03T23:32:30.110Z,66.72
2023-03-03T23:37:33.110Z,66.40
2023-03-03T23:42:35.803Z,66.76
2023-03-03T23:47:38.646Z,66.46
2023-03-03T23:52:41.623Z,66.59
2023-03-03T23:57:44.460Z,66.35
